Time;durP1;ratioP1;P1;durP2;ratioP2;P2;SDS_P1;SDS_P2;PMS_P1;PMS_P2;Temp;Humidity;BMP_temperature;BMP_pressure;BME280_temperature;BME280_humidity;BME280_pressure;Samples;Min_cycle;Max_cycle;Signal;HPM_P1;HPM_P2
2022/10/16 00:00:32;;;;;;;0.30;0.25;;;;;;;15.76;100.00;98098.59;15273422;19;20015;-56
2022/10/16 00:06:02;;;;;;;0.47;0.17;;;;;;;15.68;100.00;98090.63;15281709;19;20014;-55
2022/10/16 00:11:29;;;;;;;0.40;0.10;;;;;;;15.65;100.00;98089.16;15276284;19;20014;-56
2022/10/16 00:16:55;;;;;;;1.23;0.28;;;;;;;15.61;100.00;98089.78;15282748;19;20010;-56
2022/10/16 00:22:23;;;;;;;1.45;0.30;;;;;;;15.60;100.00;98096.25;15276851;19;20460;-52
2022/10/16 00:27:48;;;;;;;1.35;0.30;;;;;;;15.56;100.00;98101.25;15274180;19;20022;-55
2022/10/16 00:33:12;;;;;;;0.52;0.20;;;;;;;15.55;100.00;98086.81;15277159;19;20011;-55
2022/10/16 00:38:46;;;;;;;0.68;0.30;;;;;;;15.53;100.00;98082.63;15275485;19;20010;-55
2022/10/16 00:44:41;;;;;;;1.20;0.40;;;;;;;15.50;100.00;98083.03;15279801;19;20481;-56
2022/10/16 00:50:10;;;;;;;1.05;0.20;;;;;;;15.41;100.00;98064.19;15274224;19;20093;-51
2022/10/16 00:55:38;;;;;;;0.17;0.17;;;;;;;15.34;100.00;98076.91;15278675;19;20017;-55
2022/10/16 01:01:02;;;;;;;0.52;0.20;;;;;;;15.28;100.00;98091.25;15267532;19;20351;-58
2022/10/16 01:06:35;;;;;;;0.88;0.20;;;;;;;15.21;100.00;98084.97;15279662;19;20006;-59
2022/10/16 01:12:12;;;;;;;0.20;0.10;;;;;;;15.18;100.00;98102.47;15273048;19;20025;-59
2022/10/16 01:17:44;;;;;;;1.38;0.30;;;;;;;15.16;100.00;98106.44;15277394;19;20018;-58
2022/10/16 01:23:16;;;;;;;1.17;0.20;;;;;;;15.10;100.00;98110.78;15272280;19;20035;-59
2022/10/16 01:28:50;;;;;;;0.50;0.20;;;;;;;15.07;100.00;98114.72;15273912;19;20018;-60
2022/10/16 01:34:25;;;;;;;1.75;0.20;;;;;;;15.00;100.00;98121.97;15270809;19;20011;-58
2022/10/16 01:39:59;;;;;;;0.20;0.20;;;;;;;14.97;100.00;98113.38;15273242;19;20014;-59
2022/10/16 01:45:27;;;;;;;0.52;0.20;;;;;;;14.92;100.00;98114.84;15271936;19;20036;-58
2022/10/16 01:50:58;;;;;;;0.32;0.20;;;;;;;14.92;100.00;98113.97;15275365;19;20010;-61
2022/10/16 01:56:25;;;;;;;0.20;0.20;;;;;;;14.86;100.00;98103.94;15275456;19;20015;-60
2022/10/16 02:01:57;;;;;;;0.30;0.20;;;;;;;14.87;100.00;98108.31;15264867;19;20019;-58
2022/10/16 02:07:22;;;;;;;1.40;0.40;;;;;;;14.82;100.00;98102.63;15272967;19;20415;-60
2022/10/16 02:12:50;;;;;;;0.50;0.22;;;;;;;14.74;100.00;98123.44;15275005;19;20022;-59
2022/10/16 02:18:18;;;;;;;0.85;0.20;;;;;;;14.71;100.00;98133.81;15265691;19;20014;-60
2022/10/16 02:23:49;;;;;;;2.58;0.40;;;;;;;14.65;100.00;98132.69;15271020;19;20014;-61
2022/10/16 02:29:19;;;;;;;0.30;0.30;;;;;;;14.59;100.00;98139.75;15269997;19;20014;-61
2022/10/16 02:34:49;;;;;;;0.82;0.20;;;;;;;14.56;100.00;98155.56;15264418;19;20533;-58
2022/10/16 02:40:17;;;;;;;0.30;0.30;;;;;;;14.45;100.00;98146.91;15266266;19;20066;-61
2022/10/16 02:45:41;;;;;;;0.38;0.20;;;;;;;14.39;100.00;98138.72;15274171;19;20013;-60
2022/10/16 02:51:09;;;;;;;0.70;0.30;;;;;;;14.30;100.00;98133.44;15266751;19;20829;-59
2022/10/16 02:56:33;;;;;;;0.80;0.30;;;;;;;14.24;100.00;98134.19;15282372;19;20456;-61
2022/10/16 03:01:58;;;;;;;0.80;0.20;;;;;;;14.16;100.00;98137.88;15282677;19;20010;-58
2022/10/16 03:07:25;;;;;;;1.33;0.30;;;;;;;14.06;100.00;98147.31;15278428;19;20370;-57
2022/10/16 03:12:50;;;;;;;0.28;0.28;;;;;;;14.02;100.00;98147.69;15285374;19;20018;-57
2022/10/16 03:18:15;;;;;;;0.93;0.30;;;;;;;14.01;100.00;98147.91;15283287;19;20024;-59
2022/10/16 03:23:42;;;;;;;1.65;0.30;;;;;;;14.04;100.00;98161.06;15275706;19;20022;-59
2022/10/16 03:29:06;;;;;;;1.05;0.20;;;;;;;14.08;100.00;98156.94;15281836;19;20014;-60
2022/10/16 03:34:32;;;;;;;0.45;0.20;;;;;;;14.11;100.00;98145.72;15285002;19;20018;-59
2022/10/16 03:40:06;;;;;;;0.77;0.30;;;;;;;14.14;100.00;98139.94;15271078;19;20037;-59
2022/10/16 03:45:31;;;;;;;1.17;0.25;;;;;;;14.14;100.00;98144.50;15284699;19;20354;-58
2022/10/16 03:50:55;;;;;;;0.85;0.30;;;;;;;14.12;100.00;98141.97;15282213;19;20375;-58
2022/10/16 03:56:23;;;;;;;0.20;0.20;;;;;;;14.10;100.00;98125.06;15278578;19;20022;-59
2022/10/16 04:01:46;;;;;;;0.20;0.20;;;;;;;14.08;100.00;98150.69;15278803;19;20082;-62
2022/10/16 04:07:11;;;;;;;2.45;0.30;;;;;;;14.05;100.00;98132.97;15287559;19;20021;-57
2022/10/16 04:12:38;;;;;;;0.55;0.20;;;;;;;14.02;100.00;98157.72;15278042;19;20029;-59
2022/10/16 04:18:03;;;;;;;0.60;0.20;;;;;;;14.00;100.00;98176.84;15282173;19;20018;-60
2022/10/16 04:23:27;;;;;;;1.70;0.35;;;;;;;13.99;100.00;98177.84;15278167;19;20018;-59
2022/10/16 04:28:55;;;;;;;1.27;0.30;;;;;;;13.97;100.00;98188.06;15273724;19;20025;-56
2022/10/16 04:34:19;;;;;;;0.70;0.20;;;;;;;14.00;100.00;98198.50;15282434;19;20044;-60
2022/10/16 04:39:51;;;;;;;0.40;0.20;;;;;;;14.03;100.00;98203.56;15277647;19;20018;-57
2022/10/16 04:50:41;;;;;;;2.20;0.30;;;;;;;14.07;100.00;98220.25;15275217;19;20032;-58
2022/10/16 04:56:15;;;;;;;0.93;0.30;;;;;;;14.08;100.00;98221.94;15280593;19;20044;-59
2022/10/16 05:01:44;;;;;;;0.40;0.40;;;;;;;14.10;100.00;98217.19;15276099;19;20015;-57
2022/10/16 05:07:09;;;;;;;0.85;0.20;;;;;;;14.13;100.00;98233.06;15308827;19;20010;-60
2022/10/16 05:12:34;;;;;;;0.22;0.20;;;;;;;14.16;100.00;98242.66;15344482;19;20026;-62
2022/10/16 05:18:02;;;;;;;0.73;0.30;;;;;;;14.15;100.00;98249.13;15288088;19;20018;-65
2022/10/16 05:23:26;;;;;;;0.60;0.30;;;;;;;14.10;100.00;98244.28;15270411;19;20126;-62
2022/10/16 05:28:51;;;;;;;1.08;0.30;;;;;;;14.07;100.00;98244.63;15268308;19;20025;-62
2022/10/16 05:34:18;;;;;;;1.98;0.30;;;;;;;14.08;100.00;98251.75;15273602;19;20048;-63
2022/10/16 05:39:49;;;;;;;1.23;0.30;;;;;;;14.10;100.00;98246.16;15264380;19;20489;-62
2022/10/16 05:45:14;;;;;;;1.00;0.30;;;;;;;14.11;100.00;98258.66;15270232;19;20061;-62
2022/10/16 05:50:42;;;;;;;0.55;0.30;;;;;;;14.14;100.00;98271.81;15261933;19;20614;-62
2022/10/16 05:56:07;;;;;;;0.40;0.30;;;;;;;14.23;100.00;98280.69;15269047;19;20019;-62
2022/10/16 06:01:32;;;;;;;0.65;0.40;;;;;;;14.26;100.00;98274.91;15266820;19;20039;-63
2022/10/16 06:07:01;;;;;;;0.30;0.30;;;;;;;14.30;100.00;98297.88;15267833;19;20459;-61
2022/10/16 06:12:25;;;;;;;1.25;0.47;;;;;;;14.33;100.00;98300.22;15265855;19;20023;-62
2022/10/16 06:17:49;;;;;;;1.10;0.40;;;;;;;14.38;100.00;98314.03;15268017;19;20031;-63
2022/10/16 06:23:17;;;;;;;0.70;0.40;;;;;;;14.42;100.00;98314.50;15258950;19;20015;-61
2022/10/16 06:28:42;;;;;;;1.90;0.30;;;;;;;14.45;100.00;98335.81;15262566;19;20022;-61
2022/10/16 06:34:10;;;;;;;0.45;0.40;;;;;;;14.43;100.00;98329.75;15275102;19;20073;-61
2022/10/16 06:39:45;;;;;;;0.45;0.25;;;;;;;14.52;100.00;98323.19;15265416;19;20031;-62
2022/10/16 06:45:10;;;;;;;0.60;0.60;;;;;;;14.60;100.00;98328.47;15268799;19;20014;-61
2022/10/16 06:50:35;;;;;;;0.82;0.50;;;;;;;14.66;100.00;98332.31;15263475;19;20006;-63
2022/10/16 06:56:09;;;;;;;1.33;0.50;;;;;;;14.75;100.00;98330.38;15259576;19;20015;-62
2022/10/16 07:01:35;;;;;;;1.33;0.35;;;;;;;14.79;100.00;98309.97;15264495;19;20592;-61
2022/10/16 07:06:59;;;;;;;0.32;0.30;;;;;;;14.85;100.00;98324.66;15261984;19;20011;-65
2022/10/16 07:12:29;;;;;;;0.73;0.25;;;;;;;14.91;100.00;98321.16;15266200;19;20104;-64
2022/10/16 07:17:53;;;;;;;0.88;0.20;;;;;;;14.98;100.00;98343.78;15263274;19;20024;-63
2022/10/16 07:23:18;;;;;;;0.43;0.30;;;;;;;15.04;100.00;98340.28;15260423;19;20011;-62
2022/10/16 07:28:45;;;;;;;0.80;0.40;;;;;;;15.06;100.00;98338.22;15257211;19;20025;-63
2022/10/16 07:34:10;;;;;;;0.20;0.20;;;;;;;15.09;100.00;98367.69;15262487;19;20018;-63
2022/10/16 07:39:41;;;;;;;1.83;0.30;;;;;;;15.16;100.00;98375.06;15258304;19;20021;-63
2022/10/16 07:45:09;;;;;;;0.30;0.20;;;;;;;15.22;100.00;98371.59;15270082;19;20499;-62
2022/10/16 07:50:34;;;;;;;0.57;0.30;;;;;;;15.38;100.00;98374.03;15275930;19;20036;-63
2022/10/16 07:55:51;;;;;;;0.40;0.30;;;;;;;15.52;100.00;98368.75;15277678;19;20022;-62
2022/10/16 08:01:20;;;;;;;0.57;0.28;;;;;;;15.62;100.00;98380.13;15270276;19;20014;-61
2022/10/16 08:06:47;;;;;;;0.55;0.30;;;;;;;15.74;100.00;98361.44;15276959;19;20459;-62
2022/10/16 08:12:12;;;;;;;0.28;0.20;;;;;;;15.86;100.00;98362.59;15267107;19;20042;-61
2022/10/16 08:17:39;;;;;;;0.28;0.20;;;;;;;16.00;100.00;98354.53;15276714;19;20019;-61
2022/10/16 08:23:04;;;;;;;0.20;0.20;;;;;;;16.17;100.00;98371.38;15270382;19;20007;-62
2022/10/16 08:28:32;;;;;;;0.68;0.20;;;;;;;16.29;100.00;98377.94;15273327;19;20040;-62
2022/10/16 08:34:00;;;;;;;0.50;0.32;;;;;;;16.40;100.00;98381.97;15276590;19;20010;-62
2022/10/16 08:39:25;;;;;;;0.35;0.30;;;;;;;16.49;100.00;98396.25;15271042;19;20036;-63
2022/10/16 08:45:20;;;;;;;1.23;0.30;;;;;;;16.48;100.00;98410.91;15264419;19;20014;-63
2022/10/16 08:50:50;;;;;;;1.02;0.38;;;;;;;16.52;100.00;98412.19;15272019;19;20027;-65
2022/10/16 08:56:14;;;;;;;0.30;0.30;;;;;;;16.59;100.00;98413.06;15273952;19;20054;-62
2022/10/16 09:01:48;;;;;;;0.50;0.38;;;;;;;16.70;100.00;98429.84;15267007;19;20571;-62
2022/10/16 09:07:20;;;;;;;0.82;0.40;;;;;;;16.69;100.00;98429.03;15277125;19;20018;-62
2022/10/16 09:12:50;;;;;;;0.40;0.40;;;;;;;16.80;100.00;98433.03;15265450;19;20533;-63
2022/10/16 09:18:23;;;;;;;1.17;0.50;;;;;;;17.09;100.00;98448.28;15265184;19;20010;-62
2022/10/16 09:23:54;;;;;;;0.30;0.30;;;;;;;17.29;100.00;98433.06;15271244;19;20018;-61
2022/10/16 09:29:24;;;;;;;0.50;0.40;;;;;;;17.26;100.00;98447.94;15266710;19;20015;-62
2022/10/16 09:34:53;;;;;;;0.30;0.30;;;;;;;17.28;100.00;98454.03;15262121;19;20084;-61
2022/10/16 09:40:38;;;;;;;0.32;0.30;;;;;;;17.31;100.00;98442.69;15269728;19;20023;-62
2022/10/16 09:46:04;;;;;;;0.85;0.40;;;;;;;17.40;100.00;98449.63;15274003;19;20485;-61
2022/10/16 09:51:32;;;;;;;0.80;0.30;;;;;;;17.66;100.00;98455.38;14756473;19;10000682;-63
2022/10/16 09:57:07;;;;;;;1.15;0.30;;;;;;;17.79;100.00;98447.22;15273406;19;20011;-62
2022/10/16 10:02:39;;;;;;;0.80;0.40;;;;;;;17.97;100.00;98451.25;15270342;19;20090;-62
2022/10/16 10:08:08;;;;;;;0.95;0.40;;;;;;;18.06;100.00;98444.53;15264346;19;20019;-63
2022/10/16 10:13:35;;;;;;;0.75;0.30;;;;;;;18.06;100.00;98452.72;15269673;19;20015;-63
2022/10/16 10:19:01;;;;;;;0.68;0.40;;;;;;;18.07;100.00;98462.56;15266580;19;20019;-62
2022/10/16 10:24:28;;;;;;;0.38;0.20;;;;;;;18.14;100.00;98449.81;15259155;19;20002;-62
2022/10/16 10:30:02;;;;;;;0.20;0.20;;;;;;;18.18;100.00;98459.22;15262681;19;20027;-62
2022/10/16 10:35:36;;;;;;;0.57;0.30;;;;;;;18.32;100.00;98465.53;15265450;19;20101;-62
2022/10/16 10:41:13;;;;;;;0.45;0.30;;;;;;;18.58;100.00;98463.78;15262095;19;20027;-62
2022/10/16 10:46:45;;;;;;;0.63;0.32;;;;;;;18.92;100.00;98474.66;15268217;19;20015;-60
2022/10/16 10:52:31;;;;;;;0.30;0.30;;;;;;;19.06;100.00;98470.88;15259682;19;20052;-61
2022/10/16 10:58:13;;;;;;;2.33;0.40;;;;;;;19.04;100.00;98466.69;15259817;19;20015;-61
2022/10/16 11:04:00;;;;;;;0.55;0.30;;;;;;;19.04;100.00;98483.88;15261704;19;20010;-63
2022/10/16 11:09:27;;;;;;;0.30;0.22;;;;;;;19.05;100.00;98471.91;15255259;19;20012;-63
2022/10/16 11:14:59;;;;;;;0.63;0.20;;;;;;;19.12;100.00;98471.03;15253630;19;20015;-63
2022/10/16 11:20:31;;;;;;;1.27;0.22;;;;;;;19.17;100.00;98479.44;15273031;19;20017;-63
2022/10/16 11:25:59;;;;;;;0.85;0.40;;;;;;;19.18;100.00;98478.38;15270036;19;20473;-63
2022/10/16 11:31:28;;;;;;;1.90;0.30;;;;;;;19.18;100.00;98492.03;15280239;19;20029;-64
2022/10/16 11:37:02;;;;;;;0.77;0.30;;;;;;;19.12;100.00;98487.44;15273067;19;20014;-64
2022/10/16 11:42:33;;;;;;;0.25;0.20;;;;;;;19.09;100.00;98503.22;15268774;19;20010;-60
2022/10/16 11:48:07;;;;;;;0.40;0.40;;;;;;;19.07;100.00;98494.41;15277871;19;20015;-61
2022/10/16 11:53:48;;;;;;;0.30;0.30;;;;;;;19.17;100.00;98495.81;15279124;19;20035;-64
2022/10/16 11:59:21;;;;;;;4.93;0.40;;;;;;;19.39;100.00;98491.75;15269120;19;20545;-64
2022/10/16 12:04:56;;;;;;;0.75;0.20;;;;;;;19.61;100.00;98488.69;15276077;19;20027;-64
2022/10/16 12:10:27;;;;;;;0.73;0.30;;;;;;;19.68;100.00;98492.25;15271844;19;20023;-65
2022/10/16 12:15:59;;;;;;;0.30;0.30;;;;;;;19.70;100.00;98503.78;15269245;19;20023;-64
2022/10/16 12:21:33;;;;;;;0.43;0.30;;;;;;;19.68;100.00;98494.13;15275050;19;20018;-64
2022/10/16 12:27:02;;;;;;;0.30;0.30;;;;;;;19.77;100.00;98522.06;15274787;19;20011;-64
2022/10/16 12:32:34;;;;;;;0.63;0.20;;;;;;;19.83;100.00;98518.44;15269840;19;20032;-63
2022/10/16 12:38:15;;;;;;;0.95;0.30;;;;;;;19.86;100.00;98518.03;15274407;19;20349;-64
2022/10/16 12:43:44;;;;;;;0.45;0.35;;;;;;;20.29;100.00;98511.81;15274753;19;20034;-62
2022/10/16 12:49:16;;;;;;;18.63;1.15;;;;;;;20.90;100.00;98512.16;15265282;19;20031;-63
2022/10/16 12:54:42;;;;;;;0.93;0.40;;;;;;;20.89;100.00;98502.28;15269495;19;20021;-63
2022/10/16 13:00:19;;;;;;;2.95;0.55;;;;;;;21.17;100.00;98514.63;15264390;19;20018;-63
2022/10/16 13:05:56;;;;;;;0.90;0.30;;;;;;;20.96;100.00;98498.63;15264521;19;20014;-64
2022/10/16 13:11:33;;;;;;;0.93;0.30;;;;;;;21.02;100.00;98505.94;15271872;19;20026;-64
2022/10/16 13:17:11;;;;;;;1.50;0.30;;;;;;;20.98;100.00;98507.47;15273968;19;20022;-64
2022/10/16 13:22:43;;;;;;;0.73;0.20;;;;;;;21.22;100.00;98513.94;15262792;19;20022;-64
2022/10/16 13:28:15;;;;;;;0.40;0.25;;;;;;;21.16;100.00;98514.88;15272597;19;20600;-64
2022/10/16 13:33:45;;;;;;;1.58;0.25;;;;;;;21.25;100.00;98513.47;15270373;19;20058;-64
2022/10/16 13:39:22;;;;;;;0.38;0.20;;;;;;;21.16;100.00;98510.22;15263424;19;20010;-63
2022/10/16 13:44:51;;;;;;;1.45;0.22;;;;;;;21.45;100.00;98515.13;15267752;19;20491;-62
2022/10/16 13:50:21;;;;;;;0.45;0.20;;;;;;;21.54;100.00;98517.34;15269504;19;20037;-63
2022/10/16 13:55:45;;;;;;;1.33;0.10;;;;;;;21.80;100.00;98512.63;15262022;19;20481;-61
2022/10/16 14:01:12;;;;;;;2.53;0.30;;;;;;;21.79;100.00;98519.16;15273842;19;20010;-63
2022/10/16 14:06:44;;;;;;;0.32;0.20;;;;;;;21.81;100.00;98521.66;15261259;19;20033;-63
2022/10/16 14:12:12;;;;;;;0.70;0.20;;;;;;;21.92;100.00;98517.31;15268785;19;20033;-63
2022/10/16 14:17:48;;;;;;;0.30;0.13;;;;;;;21.52;100.00;98522.22;15269197;19;20025;-62
2022/10/16 14:23:31;;;;;;;0.13;0.13;;;;;;;21.24;100.00;98537.28;13966990;19;10000237;-60
2022/10/16 14:29:14;;;;;;;0.20;0.15;;;;;;;20.92;100.00;98547.56;15266465;19;20491;-60
2022/10/16 14:34:41;;;;;;;0.85;0.20;;;;;;;20.74;100.00;98545.59;15267308;19;20523;-60
2022/10/16 14:40:18;;;;;;;0.15;0.10;;;;;;;20.74;100.00;98540.97;15260094;19;20022;-62
2022/10/16 14:45:44;;;;;;;0.47;0.28;;;;;;;20.73;100.00;98555.69;15263210;19;20015;-64
2022/10/16 14:51:15;;;;;;;0.20;0.20;;;;;;;20.59;100.00;98557.72;15265279;19;21138;-63
2022/10/16 14:56:51;;;;;;;0.50;0.15;;;;;;;20.51;100.00;98552.53;15256357;19;20058;-59
2022/10/16 15:02:25;;;;;;;0.20;0.20;;;;;;;20.37;100.00;98575.56;15241024;19;20015;-63
2022/10/16 15:07:49;;;;;;;0.20;0.20;;;;;;;20.21;100.00;98575.03;15264105;19;20015;-64
2022/10/16 15:13:19;;;;;;;0.20;0.20;;;;;;;20.19;100.00;98593.56;15261267;19;20362;-63
2022/10/16 15:18:43;;;;;;;2.75;0.30;;;;;;;20.14;100.00;98594.22;15260881;19;20007;-61
2022/10/16 15:24:14;;;;;;;0.98;0.30;;;;;;;19.96;100.00;98603.16;15260843;19;20025;-64
2022/10/16 15:29:41;;;;;;;1.27;0.30;;;;;;;19.84;100.00;98599.38;15253396;19;20010;-64
2022/10/16 15:35:06;;;;;;;0.38;0.22;;;;;;;19.74;100.00;98616.28;15264391;19;20035;-63
2022/10/16 15:40:38;;;;;;;0.25;0.20;;;;;;;19.70;100.00;98626.78;15260895;19;20037;-63
2022/10/16 15:46:08;;;;;;;0.98;0.32;;;;;;;19.67;100.00;98637.31;15252951;19;20010;-62
2022/10/16 15:51:33;;;;;;;0.20;0.20;;;;;;;19.65;100.00;98634.78;15263158;19;20018;-63
2022/10/16 15:56:58;;;;;;;0.43;0.20;;;;;;;19.61;100.00;98636.28;15261264;19;20374;-63
2022/10/16 16:02:26;;;;;;;0.82;0.22;;;;;;;19.50;100.00;98642.41;15258040;19;20752;-63
2022/10/16 16:07:52;;;;;;;1.40;0.50;;;;;;;19.43;100.00;98645.16;15278003;19;20041;-62
2022/10/16 16:13:16;;;;;;;0.40;0.40;;;;;;;19.33;100.00;98645.59;15278083;19;20034;-63
2022/10/16 16:18:44;;;;;;;0.70;0.57;;;;;;;19.18;100.00;98636.78;15271205;19;21018;-61
2022/10/16 16:24:08;;;;;;;1.00;0.70;;;;;;;19.05;100.00;98646.69;15301285;19;20021;-60
2022/10/16 16:29:33;;;;;;;0.93;0.50;;;;;;;18.94;100.00;98642.69;15285292;19;20009;-61
2022/10/16 16:35:00;;;;;;;0.82;0.70;;;;;;;18.79;100.00;98661.13;15268584;19;20024;-62
2022/10/16 16:40:31;;;;;;;0.98;0.70;;;;;;;18.66;100.00;98670.13;15271606;19;20025;-61
2022/10/16 16:45:57;;;;;;;1.45;0.50;;;;;;;18.56;100.00;98686.06;15275551;19;20043;-61
2022/10/16 16:51:26;;;;;;;0.30;0.30;;;;;;;18.44;100.00;98689.41;15272481;19;20022;-58
2022/10/16 16:56:50;;;;;;;0.82;0.40;;;;;;;18.32;100.00;98697.34;15273764;19;20033;-58
2022/10/16 17:02:15;;;;;;;0.52;0.40;;;;;;;18.21;100.00;98702.53;15274061;19;20017;-61
2022/10/16 17:07:43;;;;;;;1.20;0.60;;;;;;;18.07;100.00;98709.84;15261286;19;20022;-61
2022/10/16 17:13:08;;;;;;;0.95;0.80;;;;;;;17.91;100.00;98720.00;15268248;19;20078;-62
2022/10/16 17:18:33;;;;;;;0.82;0.60;;;;;;;17.83;100.00;98723.72;15265884;19;20082;-60
2022/10/16 17:24:02;;;;;;;0.50;0.50;;;;;;;17.74;100.00;98719.50;15264116;19;20155;-60
2022/10/16 17:29:27;;;;;;;1.73;0.85;;;;;;;17.73;100.00;98736.06;15270300;19;20007;-61
2022/10/16 17:34:52;;;;;;;0.75;0.45;;;;;;;17.68;100.00;98742.94;15268800;19;20085;-61
2022/10/16 17:40:28;;;;;;;1.85;0.30;;;;;;;17.69;100.00;98738.34;15255484;19;20014;-61
2022/10/16 17:45:53;;;;;;;1.60;0.40;;;;;;;17.67;100.00;98748.59;15266826;19;20651;-61
2022/10/16 17:51:19;;;;;;;0.55;0.50;;;;;;;17.61;100.00;98754.81;15266331;19;20354;-61
2022/10/16 17:56:47;;;;;;;2.13;1.15;;;;;;;17.58;100.00;98758.78;15259772;19;20024;-62
2022/10/16 18:02:13;;;;;;;0.80;0.73;;;;;;;17.56;100.00;98766.31;15266928;19;20025;-61
2022/10/16 18:07:38;;;;;;;0.90;0.52;;;;;;;17.53;100.00;98767.56;15264297;19;20010;-57
2022/10/16 18:13:08;;;;;;;0.52;0.52;;;;;;;17.53;100.00;98755.81;15263397;19;20387;-61
2022/10/16 18:18:33;;;;;;;0.82;0.50;;;;;;;17.47;100.00;98773.78;15260884;19;20529;-60
2022/10/16 18:23:58;;;;;;;1.98;1.25;;;;;;;17.42;100.00;98781.72;15266475;19;20018;-60
2022/10/16 18:29:26;;;;;;;0.63;0.60;;;;;;;17.34;100.00;98790.03;15260749;19;20019;-58
2022/10/16 18:34:51;;;;;;;5.03;0.80;;;;;;;17.24;100.00;98793.91;15266151;19;20030;-62
2022/10/16 18:40:16;;;;;;;1.55;0.65;;;;;;;17.13;100.00;98799.88;15265827;19;20017;-62
2022/10/16 18:45:43;;;;;;;0.60;0.60;;;;;;;17.02;100.00;98803.13;15258095;19;20011;-61
2022/10/16 18:51:12;;;;;;;1.55;0.52;;;;;;;16.96;100.00;98810.19;15267073;19;20010;-62
2022/10/16 18:56:39;;;;;;;1.42;0.60;;;;;;;16.97;100.00;98808.31;15264764;19;20022;-60
2022/10/16 19:02:06;;;;;;;1.75;0.60;;;;;;;16.95;100.00;98808.50;15262999;19;20015;-59
2022/10/16 19:07:31;;;;;;;1.38;0.60;;;;;;;16.92;100.00;98808.88;15260917;19;20026;-61
2022/10/16 19:12:56;;;;;;;0.50;0.50;;;;;;;16.88;100.00;98808.38;15264300;19;20025;-60
2022/10/16 19:18:29;;;;;;;0.90;0.60;;;;;;;16.84;100.00;98809.81;15254634;19;20007;-62
2022/10/16 19:23:56;;;;;;;1.10;0.60;;;;;;;16.83;100.00;98808.13;15265868;19;20540;-60
2022/10/16 19:29:14;;;;;;;0.55;0.50;;;;;;;16.83;100.00;98821.75;15253233;19;20018;-60
2022/10/16 19:34:41;;;;;;;1.75;0.60;;;;;;;16.82;100.00;98825.50;15254818;19;20025;-61
2022/10/16 19:40:13;;;;;;;2.22;0.50;;;;;;;16.79;100.00;98843.06;15270202;19;20021;-59
2022/10/16 19:45:38;;;;;;;2.08;0.60;;;;;;;16.74;100.00;98844.66;15276386;19;20010;-61
2022/10/16 19:51:05;;;;;;;2.22;0.60;;;;;;;16.70;100.00;98856.97;15273783;19;20022;-61
2022/10/16 19:56:32;;;;;;;1.00;0.60;;;;;;;16.64;100.00;98864.84;15276212;19;21176;-62
2022/10/16 20:01:56;;;;;;;0.93;0.50;;;;;;;16.59;100.00;98863.72;15273334;19;20022;-63
2022/10/16 20:07:24;;;;;;;2.70;0.57;;;;;;;16.53;100.00;98859.88;15275782;19;20014;-59
2022/10/16 20:12:51;;;;;;;1.23;0.60;;;;;;;16.51;100.00;98864.69;15277698;19;20472;-61
2022/10/16 20:18:17;;;;;;;0.50;0.40;;;;;;;16.45;100.00;98852.69;15273447;19;20021;-59
2022/10/16 20:23:47;;;;;;;1.08;0.50;;;;;;;16.32;100.00;98858.78;15279212;19;20423;-56
2022/10/16 20:29:15;;;;;;;1.33;0.50;;;;;;;16.30;100.00;98871.69;15274601;19;20014;-62
2022/10/16 20:34:40;;;;;;;0.85;0.50;;;;;;;16.25;100.00;98873.28;15271682;19;20010;-55
2022/10/16 20:40:12;;;;;;;1.25;0.60;;;;;;;16.25;100.00;98889.59;15273086;19;20028;-62
2022/10/16 20:45:36;;;;;;;1.35;0.55;;;;;;;16.20;100.00;98897.50;15271738;19;20022;-60
2022/10/16 20:51:01;;;;;;;1.15;0.50;;;;;;;16.16;100.00;98892.41;15263624;19;20006;-56
2022/10/16 20:56:28;;;;;;;1.20;0.60;;;;;;;16.12;100.00;98896.53;15269984;19;20011;-59
2022/10/16 21:01:54;;;;;;;0.77;0.50;;;;;;;16.09;100.00;98906.94;15273331;19;20014;-61
2022/10/16 21:07:18;;;;;;;2.30;0.52;;;;;;;15.96;100.00;98897.53;15266700;19;20021;-62
2022/10/16 21:12:46;;;;;;;1.17;0.68;;;;;;;15.87;100.00;98893.22;15271959;19;20018;-61
2022/10/16 21:18:11;;;;;;;1.70;0.68;;;;;;;15.82;100.00;98901.91;15274786;19;20018;-60
2022/10/16 21:23:37;;;;;;;1.00;0.65;;;;;;;15.78;100.00;98906.00;15265936;19;20367;-60
2022/10/16 21:29:05;;;;;;;1.20;0.60;;;;;;;15.78;100.00;98910.59;15267680;19;20081;-63
2022/10/16 21:34:30;;;;;;;0.77;0.60;;;;;;;15.80;100.00;98914.81;15270874;19;20019;-59
2022/10/16 21:39:55;;;;;;;1.85;0.60;;;;;;;15.81;100.00;98911.06;15263513;19;20019;-63
2022/10/16 21:45:22;;;;;;;1.13;0.70;;;;;;;15.84;100.00;98916.19;15272013;19;20638;-63
2022/10/16 21:50:55;;;;;;;1.77;0.80;;;;;;;15.82;100.00;98917.34;15271814;19;20014;-62
2022/10/16 21:56:20;;;;;;;1.58;1.00;;;;;;;15.78;100.00;98916.03;15265138;19;20014;-60
2022/10/16 22:01:48;;;;;;;2.17;0.90;;;;;;;15.76;100.00;98920.78;15270942;19;20010;-62
2022/10/16 22:07:13;;;;;;;1.27;0.90;;;;;;;15.76;100.00;98924.34;15268354;19;20010;-61
2022/10/16 22:12:38;;;;;;;2.30;0.82;;;;;;;15.78;100.00;98921.47;15265907;19;20022;-63
2022/10/16 22:18:05;;;;;;;2.72;0.80;;;;;;;15.78;100.00;98918.75;15269467;19;20014;-62
2022/10/16 22:23:31;;;;;;;1.05;0.80;;;;;;;15.78;100.00;98908.72;15272228;19;20019;-62
2022/10/16 22:28:56;;;;;;;3.13;0.90;;;;;;;15.76;100.00;98908.03;15257713;19;20019;-64
2022/10/16 22:34:26;;;;;;;2.55;0.90;;;;;;;15.80;100.00;98895.78;15265465;19;20014;-57
2022/10/16 22:39:52;;;;;;;2.42;0.82;;;;;;;15.78;100.00;98903.28;15265151;19;20022;-61
2022/10/16 22:45:18;;;;;;;1.77;0.80;;;;;;;15.76;100.00;98908.03;15263428;19;21208;-59
2022/10/16 22:50:46;;;;;;;2.30;0.80;;;;;;;15.77;100.00;98914.34;15268844;19;20683;-59
2022/10/16 22:56:11;;;;;;;0.70;0.70;;;;;;;15.79;100.00;98910.41;15268779;19;20021;-56
2022/10/16 23:01:39;;;;;;;1.23;0.80;;;;;;;15.81;100.00;98899.38;15261392;19;20327;-60
2022/10/16 23:07:06;;;;;;;1.92;0.73;;;;;;;15.78;100.00;98907.88;15267668;19;20021;-62
2022/10/16 23:12:31;;;;;;;3.20;0.90;;;;;;;15.65;100.00;98895.75;15275410;19;20006;-61
2022/10/16 23:17:56;;;;;;;1.98;1.00;;;;;;;15.46;100.00;98896.25;15278675;19;20092;-61
2022/10/16 23:23:24;;;;;;;4.72;1.00;;;;;;;15.37;100.00;98888.16;15283248;19;20014;-59
2022/10/16 23:28:49;;;;;;;1.65;0.82;;;;;;;15.33;100.00;98881.41;15281085;19;20098;-61
2022/10/16 23:34:14;;;;;;;2.60;0.80;;;;;;;15.29;100.00;98896.38;15275551;19;20019;-61
2022/10/16 23:39:48;;;;;;;1.95;0.80;;;;;;;15.29;100.00;98896.38;15273817;19;20046;-59
2022/10/16 23:45:13;;;;;;;3.15;0.80;;;;;;;15.28;100.00;98896.56;15281175;19;20027;-58
2022/10/16 23:50:37;;;;;;;1.67;0.70;;;;;;;15.27;100.00;98908.44;15278120;19;20010;-61
2022/10/16 23:56:05;;;;;;;1.92;0.82;;;;;;;15.25;100.00;98911.31;15279378;19;20022;-58
